• Join FlightAware (Why Join?)
  • Login
  • US Flag 
07:22PM EDT


 

Airport Tracker/Info


-or-


 

Live Flight TrackerFlight Track Log ✈ N100WX ✈ 06-Jul-2013 ✈ KBED - KACK

Flight Track Log - Related Links

Times and Time Zones

All times are in EDT time to prevent confusion due to time zone crossing. See the N100WX flight status page for this flight to view local times or setup timezone preferences in your user account.

Time Position Orientation Groundspeed Altitude Reporting Facility
EDT Latitude Longitude Course Direction KTS MPH feet Rate Location/Type
09:15AM 42.3428 -71.3194 143° Southeast 254 292 11,000  Level Boston Center
09:16AM 42.2942 -71.2583 137° Southeast 260 299 13,000 2,040 Climbing Boston Center
09:17AM 42.2331 -71.1894 140° Southeast 266 306 15,100 1,200 Climbing Boston Center
09:18AM 42.1781 -71.1233 138° Southeast 273 314 15,500 180 Climbing Boston Center
09:19AM 42.1083 -71.0436 140° Southeast 299 344 15,500  Level Boston Center
09:20AM 42.0608 -70.8691 143° Southeast  Level Estimated
09:20AM 42.0300 -70.9531 139° Southeast 306 352 15,600  Level Boston Center
09:21AM 41.9644 -70.8739 138° Southeast 306 352 15,500 -60 Descending Boston Center
09:22AM 41.9008 -70.8028 140° Southeast 306 352 15,500 -840 Level Boston Center
09:23AM 41.8331 -70.7236 139° Southeast 312 359 13,900 -1,620 Descending Boston Center
09:24AM 41.7672 -70.6531 141° Southeast 312 359 12,300 -1,620 Descending Boston Center
09:25AM 41.7078 -70.5797 137° Southeast 301 346 10,700 -1,560 Descending Boston Center
09:26AM 41.6442 -70.5094 140° Southeast 301 346 9,200 -1,500 Descending Boston Center
09:27AM 41.5867 -70.4444 140° Southeast 289 333 7,700 -1,320 Descending Boston Center
09:28AM 41.5314 -70.3797 139° Southeast 279 321 6,600 -1,260 Descending Boston Center
09:29AM 41.4886 -70.3311 140° Southeast 267 307 5,200 -1,500 Descending Boston Center
09:30AM 41.4392 -70.2469 128° Southeast 249 287 3,700 -1,320 Descending Boston Center
09:31AM 41.4042 -70.1706 121° Southeast 244 281 2,600 -600 Descending Boston Center
09:32AM 41.3800 -70.0969 114° Southeast 227 261 2,500 -60 Descending Boston Center
09:33AM 41.3594 -70.0228 110° East 214 246 2,500 -300 Level Boston Center
09:34AM 41.3108 -69.9889 152° Southeast 184 212 2,000 -840 Descending Boston Center
09:35AM 41.2844 -70.0256 226° Southwest 127 146 900 -780 Descending Boston Center
09:36AM 41.2578 -70.0350 195° South 112 129 500 3,300 Descending Boston Center
09:37AM 41.2267 -70.0417 189° South 112 129 7,500 6,960 Climbing Boston Center
09:39AM 41.2500 -70.0500 339° North  Level FlightAware Approximate
09:46AM 41.2531 -70.0603 339° North  Level Estimated
09:47AM 41.2531 -70.0603 339° North  Level Estimated
09:48AM 41.2531 -70.0603 339° North  Level Estimated
09:49AM 41.2531 -70.0603 339° North  Level Estimated
09:50AM 41.2531 -70.0603 339° North  Level Estimated
09:51AM 41.2531 -70.0603 339° North  Level Estimated
09:52AM 41.2531 -70.0603 339° North  Level Estimated
09:53AM 41.2531 -70.0603 339° North  Level Estimated
09:54AM 41.2531 -70.0603 339° North  Level Estimated